Time;durP1;ratioP1;P1;durP2;ratioP2;P2;SDS_P1;SDS_P2;PMS_P1;PMS_P2;Temp;Humidity;BMP_temperature;BMP_pressure;BME280_temperature;BME280_humidity;BME280_pressure;Samples;Min_cycle;Max_cycle;Signal;HPM_P1;HPM_P2
2022/03/16 00:02:22;;;;;;;86.30;49.85;;;12.70;56.00;;;;;;5014623;28;20033;-62
2022/03/16 00:04:55;;;;;;;76.88;46.22;;;12.60;56.50;;;;;;5014378;28;20388;-63
2022/03/16 00:07:22;;;;;;;77.13;45.20;;;12.60;56.60;;;;;;5045770;28;20499;-63
2022/03/16 00:09:48;;;;;;;94.50;53.95;;;12.70;57.70;;;;;;5014346;28;20058;-61
2022/03/16 00:12:14;;;;;;;87.57;51.28;;;12.60;57.00;;;;;;5013621;28;20029;-63
2022/03/16 00:14:41;;;;;;;85.32;50.28;;;12.60;57.70;;;;;;5013992;28;20053;-61
2022/03/16 00:17:08;;;;;;;99.97;58.75;;;12.60;58.10;;;;;;5014254;28;20381;-62
2022/03/16 00:19:33;;;;;;;107.80;60.30;;;12.60;57.40;;;;;;5014267;28;20117;-61
2022/03/16 00:22:01;;;;;;;92.00;56.50;;;12.60;57.20;;;;;;5014129;28;20572;-62
2022/03/16 00:24:27;;;;;;;105.40;59.40;;;12.60;57.40;;;;;;5014102;28;20025;-62
2022/03/16 00:26:53;;;;;;;92.00;54.47;;;12.60;57.00;;;;;;5013999;28;20511;-63
2022/03/16 00:29:19;;;;;;;115.22;65.60;;;12.70;57.20;;;;;;5014086;28;20045;-61
2022/03/16 00:31:45;;;;;;;156.73;93.60;;;12.70;56.80;;;;;;5013912;28;20018;-61
2022/03/16 00:34:10;;;;;;;167.45;101.03;;;12.60;57.10;;;;;;5013614;28;20030;-61
2022/03/16 00:36:36;;;;;;;153.20;93.03;;;12.30;58.80;;;;;;5014244;28;20029;-61
2022/03/16 00:39:03;;;;;;;150.23;93.18;;;12.20;59.20;;;;;;5045681;28;20022;-62
2022/03/16 00:41:29;;;;;;;174.68;103.00;;;12.20;60.30;;;;;;5014104;28;20026;-60
2022/03/16 00:43:54;;;;;;;160.50;97.55;;;12.20;60.90;;;;;;5014079;28;20022;-61
2022/03/16 00:46:20;;;;;;;158.13;96.30;;;12.00;62.60;;;;;;5013937;28;20381;-61
2022/03/16 00:48:46;;;;;;;156.20;97.80;;;12.00;62.70;;;;;;5013838;28;20033;-61
2022/03/16 00:51:12;;;;;;;159.38;98.22;;;12.00;62.60;;;;;;5013654;28;20018;-61
2022/03/16 00:53:39;;;;;;;156.77;97.28;;;12.00;64.00;;;;;;5013581;28;20037;-62
2022/03/16 00:56:06;;;;;;;136.98;84.43;;;11.90;64.20;;;;;;5013844;28;20172;-62
2022/03/16 00:58:32;;;;;;;137.60;83.15;;;11.90;64.40;;;;;;5013697;28;20531;-62
2022/03/16 01:00:59;;;;;;;113.00;72.88;;;12.00;63.40;;;;;;5013610;28;20145;-61
2022/03/16 01:03:25;;;;;;;105.40;64.35;;;12.10;63.20;;;;;;5013674;28;20486;-62
2022/03/16 01:05:52;;;;;;;85.75;54.78;;;12.20;61.90;;;;;;5013658;28;20029;-62
2022/03/16 01:08:17;;;;;;;81.22;50.40;;;12.30;60.40;;;;;;5013677;28;20033;-62
2022/03/16 01:10:43;;;;;;;89.68;51.05;;;12.40;59.60;;;;;;5013447;28;20381;-60
2022/03/16 01:13:09;;;;;;;78.25;46.15;;;12.40;59.50;;;;;;5013773;28;20392;-60
2022/03/16 01:15:35;;;;;;;70.10;45.15;;;12.40;59.80;;;;;;5013266;28;20404;-60
2022/03/16 01:18:01;;;;;;;68.10;42.90;;;12.40;59.30;;;;;;5013143;28;20026;-62
2022/03/16 01:20:27;;;;;;;68.70;44.58;;;12.30;59.50;;;;;;5013504;28;20030;-60
2022/03/16 01:22:53;;;;;;;89.00;56.30;;;12.40;59.50;;;;;;5013380;28;20026;-61
2022/03/16 01:25:19;;;;;;;102.85;59.28;;;12.40;60.00;;;;;;5016301;28;20061;-61
2022/03/16 01:27:44;;;;;;;83.05;51.45;;;12.30;59.80;;;;;;5017424;28;20033;-61
2022/03/16 01:30:13;;;;;;;102.32;57.42;;;12.30;60.00;;;;;;5017363;28;20037;-59
2022/03/16 01:32:39;;;;;;;92.45;55.15;;;12.30;60.00;;;;;;5017026;28;20426;-60
2022/03/16 01:35:05;;;;;;;94.07;55.17;;;12.20;60.10;;;;;;5017527;28;20029;-59
2022/03/16 01:37:31;;;;;;;101.55;58.40;;;12.20;59.80;;;;;;5017264;28;20033;-60
2022/03/16 01:39:57;;;;;;;82.47;50.88;;;12.20;60.20;;;;;;5017107;28;20022;-60
2022/03/16 01:42:23;;;;;;;90.20;55.72;;;12.20;60.00;;;;;;5017224;28;20026;-61
2022/03/16 01:44:52;;;;;;;81.43;49.00;;;12.20;60.00;;;;;;5017051;28;20053;-60
2022/03/16 01:47:21;;;;;;;73.80;46.03;;;12.20;59.90;;;;;;5016645;28;20077;-61
2022/03/16 01:49:48;;;;;;;68.75;42.72;;;12.20;59.90;;;;;;5017216;28;20030;-61
2022/03/16 01:52:27;;;;;;;79.97;49.85;;;12.20;60.10;;;;;;5017037;28;20025;-61
2022/03/16 01:54:54;;;;;;;63.30;41.50;;;12.20;60.40;;;;;;5016726;28;20105;-60
2022/03/16 01:57:20;;;;;;;72.25;44.47;;;12.20;60.30;;;;;;5016779;28;20068;-61
2022/03/16 01:59:46;;;;;;;62.00;40.90;;;12.20;60.70;;;;;;5016763;28;20457;-61
2022/03/16 02:02:13;;;;;;;62.53;40.08;;;12.20;61.00;;;;;;5016403;28;20113;-60
2022/03/16 02:04:40;;;;;;;59.65;38.47;;;12.10;61.90;;;;;;5016781;28;20018;-61
2022/03/16 02:07:06;;;;;;;59.95;37.72;;;12.10;61.10;;;;;;5016567;28;20026;-60
2022/03/16 02:09:32;;;;;;;55.63;37.55;;;12.10;61.10;;;;;;5016817;28;20037;-61
2022/03/16 02:11:58;;;;;;;55.05;36.38;;;12.10;61.90;;;;;;5016546;28;20029;-61
2022/03/16 02:14:24;;;;;;;57.47;37.00;;;12.00;61.60;;;;;;5016421;28;20050;-60
2022/03/16 02:16:51;;;;;;;56.00;36.75;;;12.10;61.80;;;;;;5016274;28;20083;-62
2022/03/16 02:19:17;;;;;;;58.70;36.85;;;12.00;62.10;;;;;;5016734;28;20385;-60
2022/03/16 02:21:45;;;;;;;49.17;33.67;;;12.00;62.20;;;;;;5016425;28;20076;-61
2022/03/16 02:24:12;;;;;;;46.70;31.40;;;12.00;61.60;;;;;;5016280;28;20476;-61
2022/03/16 02:26:38;;;;;;;50.72;33.55;;;12.00;61.00;;;;;;5016382;28;20052;-61
2022/03/16 02:29:04;;;;;;;48.20;31.17;;;12.10;60.70;;;;;;5016625;28;20026;-61
2022/03/16 02:31:30;;;;;;;64.13;40.13;;;12.10;61.00;;;;;;5016076;28;20026;-61
2022/03/16 02:33:55;;;;;;;64.53;37.88;;;12.10;62.20;;;;;;5016344;28;20022;-61
2022/03/16 02:36:21;;;;;;;76.35;47.55;;;12.10;63.10;;;;;;5015617;28;20500;-62
2022/03/16 02:38:47;;;;;;;64.38;39.13;;;12.10;63.40;;;;;;5016021;28;20026;-61
2022/03/16 02:41:13;;;;;;;60.22;37.08;;;12.00;62.60;;;;;;5016219;28;20022;-61
2022/03/16 02:43:39;;;;;;;54.78;34.47;;;12.10;62.80;;;;;;5015934;28;20032;-61
2022/03/16 02:46:05;;;;;;;57.28;36.50;;;12.10;62.40;;;;;;5015619;28;20018;-60
2022/03/16 02:48:31;;;;;;;53.80;34.10;;;12.10;61.60;;;;;;5015759;28;20033;-61
2022/03/16 02:50:57;;;;;;;61.45;37.30;;;12.10;61.90;;;;;;5015883;28;20014;-60
2022/03/16 02:53:23;;;;;;;54.55;34.08;;;12.00;62.80;;;;;;5015862;28;20022;-62
2022/03/16 02:55:49;;;;;;;54.85;35.25;;;11.90;62.20;;;;;;5015629;28;20392;-61
2022/03/16 02:58:17;;;;;;;40.65;28.45;;;11.90;62.70;;;;;;5015871;28;20037;-61
2022/03/16 03:00:43;;;;;;;43.50;27.42;;;11.90;62.90;;;;;;5015583;28;20030;-61
2022/03/16 03:03:09;;;;;;;39.67;25.77;;;11.90;64.30;;;;;;5015621;28;20455;-62
2022/03/16 03:05:35;;;;;;;41.25;25.70;;;12.00;63.10;;;;;;5015614;28;20022;-60
2022/03/16 03:08:00;;;;;;;37.63;24.83;;;12.00;63.70;;;;;;5015719;28;20029;-60
2022/03/16 03:10:27;;;;;;;38.45;24.13;;;12.10;63.20;;;;;;5015519;28;20476;-60
2022/03/16 03:12:53;;;;;;;36.42;23.95;;;12.10;63.40;;;;;;5015937;28;20026;-60
2022/03/16 03:15:19;;;;;;;50.20;30.52;;;12.10;63.70;;;;;;5015179;28;20057;-61
2022/03/16 03:17:45;;;;;;;44.72;28.55;;;12.00;65.40;;;;;;5015382;28;20034;-62
2022/03/16 03:20:12;;;;;;;48.97;30.48;;;11.90;64.50;;;;;;5015195;28;20022;-60
2022/03/16 03:22:39;;;;;;;49.00;31.27;;;11.90;64.70;;;;;;5015380;28;20026;-59
2022/03/16 03:25:08;;;;;;;57.75;35.63;;;11.90;64.60;;;;;;5015538;28;20432;-60
2022/03/16 03:27:34;;;;;;;63.50;39.30;;;11.90;64.00;;;;;;5014843;28;20057;-61
2022/03/16 03:29:59;;;;;;;58.90;37.33;;;11.80;64.00;;;;;;5015115;28;20464;-59
2022/03/16 03:32:25;;;;;;;50.28;32.60;;;11.70;63.20;;;;;;5015091;28;20022;-61
2022/03/16 03:34:51;;;;;;;47.90;30.10;;;11.70;63.70;;;;;;5014987;28;20022;-61
2022/03/16 03:37:20;;;;;;;43.35;28.95;;;11.70;63.40;;;;;;5015111;28;20444;-61
2022/03/16 03:39:46;;;;;;;48.17;29.95;;;11.80;63.50;;;;;;5015257;28;20022;-60
2022/03/16 03:42:12;;;;;;;38.72;26.63;;;11.90;63.60;;;;;;5014905;28;20515;-62
2022/03/16 03:44:38;;;;;;;39.42;26.25;;;11.90;63.40;;;;;;5014919;28;20057;-61
2022/03/16 03:47:09;;;;;;;53.60;33.40;;;11.90;64.10;;;;;;5014098;28;20058;-61
2022/03/16 03:49:37;;;;;;;46.22;30.63;;;11.90;64.10;;;;;;5014642;28;20481;-61
2022/03/16 03:52:04;;;;;;;37.95;26.45;;;11.80;64.00;;;;;;5014995;28;20429;-60
2022/03/16 03:54:30;;;;;;;40.53;24.98;;;11.80;63.40;;;;;;5014620;28;20469;-60
2022/03/16 03:56:56;;;;;;;42.53;26.35;;;11.80;63.80;;;;;;5014656;28;20038;-60
2022/03/16 03:59:23;;;;;;;37.53;25.23;;;11.80;63.90;;;;;;5014594;28;20105;-61
2022/03/16 04:01:49;;;;;;;45.50;27.23;;;11.80;64.00;;;;;;5014872;28;20038;-61
2022/03/16 04:04:15;;;;;;;42.10;27.98;;;11.90;64.90;;;;;;5014430;28;20026;-61
2022/03/16 04:06:41;;;;;;;38.75;25.42;;;11.70;65.20;;;;;;5014549;28;20488;-60
2022/03/16 04:09:06;;;;;;;39.97;24.92;;;11.60;65.70;;;;;;5014349;28;20494;-61
2022/03/16 04:11:32;;;;;;;35.35;24.30;;;11.70;66.30;;;;;;5014274;28;20022;-61
2022/03/16 04:13:58;;;;;;;38.90;26.15;;;11.70;66.90;;;;;;5014161;28;20053;-62
2022/03/16 04:16:24;;;;;;;33.78;24.42;;;11.60;68.80;;;;;;5014305;28;20030;-61
2022/03/16 04:18:50;;;;;;;35.00;23.95;;;11.60;68.00;;;;;;5014228;28;20024;-59
2022/03/16 04:21:16;;;;;;;35.53;23.50;;;11.60;68.00;;;;;;5014343;28;20564;-60
2022/03/16 04:23:42;;;;;;;45.05;29.10;;;11.70;68.10;;;;;;5014129;28;20091;-62
2022/03/16 04:26:08;;;;;;;46.00;31.83;;;11.70;67.80;;;;;;5014173;28;20428;-60
2022/03/16 04:28:34;;;;;;;39.00;26.15;;;11.60;69.10;;;;;;5014025;28;20026;-59
2022/03/16 04:31:00;;;;;;;43.20;28.83;;;11.50;69.50;;;;;;5014041;28;20080;-61
2022/03/16 04:33:27;;;;;;;46.08;29.45;;;11.50;67.80;;;;;;5014142;28;20111;-60
2022/03/16 04:35:52;;;;;;;38.38;24.85;;;11.60;67.80;;;;;;5013916;28;20022;-60
2022/03/16 04:38:19;;;;;;;37.90;25.85;;;11.70;67.20;;;;;;5014181;28;20033;-61
2022/03/16 04:40:45;;;;;;;45.65;27.17;;;11.70;68.10;;;;;;5013751;28;20465;-61
2022/03/16 04:43:11;;;;;;;45.85;28.27;;;11.70;68.60;;;;;;5013747;28;20077;-61
2022/03/16 04:45:38;;;;;;;39.55;24.55;;;11.70;67.80;;;;;;5013821;28;20030;-62
2022/03/16 04:48:07;;;;;;;52.53;31.85;;;11.60;67.40;;;;;;5013733;28;20065;-60
2022/03/16 04:50:36;;;;;;;40.85;26.55;;;11.60;68.10;;;;;;5013755;28;20034;-61
2022/03/16 04:53:02;;;;;;;38.05;23.92;;;11.60;69.20;;;;;;5014035;28;20032;-62
2022/03/16 04:55:28;;;;;;;36.53;23.88;;;11.60;69.30;;;;;;5013545;28;20021;-60
2022/03/16 04:57:54;;;;;;;43.00;27.27;;;11.70;69.90;;;;;;5013410;28;20034;-60
2022/03/16 05:00:20;;;;;;;43.10;27.77;;;11.70;68.40;;;;;;5013649;28;20083;-62
2022/03/16 05:02:46;;;;;;;61.40;36.65;;;11.70;68.30;;;;;;5013551;28;20022;-61
2022/03/16 05:05:12;;;;;;;50.05;32.75;;;11.60;69.20;;;;;;5013499;28;20033;-60
2022/03/16 05:07:39;;;;;;;46.13;28.65;;;11.40;70.60;;;;;;5013451;28;20401;-60
2022/03/16 05:10:06;;;;;;;48.17;30.70;;;11.30;71.60;;;;;;5013644;28;20454;-61
2022/03/16 05:12:43;;;;;;;59.15;34.92;;;11.40;71.60;;;;;;5013712;28;20026;-60
2022/03/16 05:15:20;;;;;;;84.57;46.40;;;11.40;71.50;;;;;;5013541;28;20050;-62
2022/03/16 05:17:46;;;;;;;89.28;53.17;;;11.30;72.10;;;;;;5013434;28;20033;-61
2022/03/16 05:20:14;;;;;;;114.65;72.50;;;11.20;72.50;;;;;;5013602;28;20026;-62
2022/03/16 05:22:45;;;;;;;135.90;83.40;;;11.30;73.40;;;;;;5013388;28;20473;-61
2022/03/16 05:25:12;;;;;;;107.55;65.75;;;11.10;74.30;;;;;;5013102;28;20028;-61
2022/03/16 05:27:39;;;;;;;92.70;58.35;;;11.10;75.00;;;;;;5013280;28;20459;-60
2022/03/16 05:30:06;;;;;;;88.68;56.72;;;11.10;74.50;;;;;;5013370;28;20440;-61
2022/03/16 05:32:33;;;;;;;111.00;66.85;;;11.30;72.80;;;;;;5013302;28;20460;-62
2022/03/16 05:34:59;;;;;;;111.15;67.55;;;11.30;72.30;;;;;;5013398;28;20472;-60
2022/03/16 05:37:25;;;;;;;109.72;67.32;;;11.20;73.30;;;;;;5013511;28;20076;-61
2022/03/16 05:39:50;;;;;;;214.90;116.43;;;11.30;73.90;;;;;;5013304;28;20026;-61
2022/03/16 05:42:16;;;;;;;233.32;129.30;;;11.30;73.10;;;;;;5012467;28;20046;-61
2022/03/16 05:44:42;;;;;;;277.42;147.38;;;11.20;74.10;;;;;;5012995;28;20357;-62
2022/03/16 05:47:07;;;;;;;255.43;140.45;;;11.10;74.40;;;;;;5010906;28;20026;-62
2022/03/16 05:49:34;;;;;;;331.17;177.07;;;11.10;74.60;;;;;;5015147;28;20025;-61
2022/03/16 05:52:00;;;;;;;396.23;199.68;;;11.10;75.40;;;;;;5018142;28;20420;-62
2022/03/16 05:54:25;;;;;;;286.52;154.10;;;11.10;75.80;;;;;;5007491;28;20349;-62
2022/03/16 05:56:51;;;;;;;394.52;208.32;;;11.20;76.30;;;;;;5018966;28;20112;-64
2022/03/16 05:59:17;;;;;;;395.35;219.20;;;11.20;75.60;;;;;;5020735;28;20105;-62
2022/03/16 06:01:42;;;;;;;345.60;194.07;;;11.20;75.90;;;;;;5018275;28;20021;-62
2022/03/16 06:04:08;;;;;;;310.58;171.35;;;11.20;74.90;;;;;;5020219;28;20079;-64
2022/03/16 06:06:34;;;;;;;282.90;161.48;;;11.40;73.40;;;;;;5019211;28;20049;-64
2022/03/16 06:08:59;;;;;;;252.02;144.52;;;11.40;73.60;;;;;;5017669;28;20109;-63
2022/03/16 06:11:26;;;;;;;222.50;128.98;;;11.50;72.20;;;;;;5023009;28;20026;-64
2022/03/16 06:13:52;;;;;;;181.60;106.65;;;11.70;71.70;;;;;;5021938;28;20041;-64
2022/03/16 06:16:17;;;;;;;163.10;97.05;;;11.80;71.90;;;;;;5022922;28;20030;-64
2022/03/16 06:18:43;;;;;;;116.63;66.82;;;11.90;72.40;;;;;;5027029;28;20476;-64
2022/03/16 06:21:09;;;;;;;331.67;186.18;;;12.00;70.70;;;;;;5035507;28;20103;-63
2022/03/16 06:23:35;;;;;;;326.83;188.48;;;11.80;70.90;;;;;;5022147;28;20610;-63
2022/03/16 06:26:04;;;;;;;282.25;165.77;;;11.80;71.70;;;;;;5015273;28;20025;-64
2022/03/16 06:28:31;;;;;;;284.33;159.02;;;11.80;70.30;;;;;;5014833;28;20021;-64
2022/03/16 06:30:57;;;;;;;278.33;167.90;;;11.90;71.50;;;;;;5015844;28;20030;-64
2022/03/16 06:33:22;;;;;;;247.57;152.15;;;12.10;69.10;;;;;;5015900;28;20029;-64
2022/03/16 06:35:48;;;;;;;218.73;136.18;;;12.20;69.10;;;;;;5014091;28;20033;-63
2022/03/16 06:38:14;;;;;;;180.38;114.10;;;12.30;68.40;;;;;;5014015;28;20026;-64
2022/03/16 06:40:40;;;;;;;153.93;92.25;;;12.50;69.10;;;;;;5013855;28;20080;-64
2022/03/16 06:43:06;;;;;;;140.20;90.18;;;12.60;68.10;;;;;;5012372;28;20424;-64
2022/03/16 06:45:32;;;;;;;120.20;76.93;;;12.80;67.80;;;;;;5014144;28;20018;-64
2022/03/16 06:47:59;;;;;;;117.60;71.00;;;13.00;67.60;;;;;;5013617;28;20018;-63
2022/03/16 06:50:26;;;;;;;102.53;64.50;;;13.30;65.80;;;;;;5013612;28;20018;-64
2022/03/16 06:52:57;;;;;;;102.03;62.50;;;13.40;64.90;;;;;;5015485;28;20137;-66
2022/03/16 06:55:23;;;;;;;88.60;58.15;;;13.50;63.60;;;;;;5013933;28;20029;-64
2022/03/16 06:57:49;;;;;;;86.25;56.83;;;13.60;63.30;;;;;;5015230;28;20053;-64
2022/03/16 07:00:16;;;;;;;93.40;55.63;;;13.70;62.20;;;;;;5015381;28;20041;-64
2022/03/16 07:02:52;;;;;;;83.60;55.35;;;13.90;61.80;;;;;;5007831;28;20030;-65
2022/03/16 07:05:18;;;;;;;91.43;56.70;;;14.20;60.40;;;;;;5004182;28;20110;-65
2022/03/16 07:07:44;;;;;;;89.75;56.45;;;14.50;59.40;;;;;;5000731;28;20043;-64
2022/03/16 07:10:10;;;;;;;81.65;53.92;;;14.70;59.40;;;;;;4999057;28;20416;-64
2022/03/16 07:12:36;;;;;;;77.65;50.28;;;14.90;58.80;;;;;;4992089;28;20034;-65
2022/03/16 07:15:03;;;;;;;68.10;47.10;;;15.10;56.40;;;;;;5004208;28;20134;-65
2022/03/16 07:17:28;;;;;;;62.97;42.70;;;15.50;56.00;;;;;;5006100;28;20030;-65
2022/03/16 07:19:54;;;;;;;62.67;41.15;;;15.90;55.50;;;;;;4996630;28;20715;-64
2022/03/16 07:22:20;;;;;;;57.97;38.78;;;16.30;53.40;;;;;;4995296;28;20147;-66
2022/03/16 07:24:46;;;;;;;58.63;40.88;;;16.90;52.90;;;;;;4994896;28;20029;-63
2022/03/16 07:27:12;;;;;;;69.80;46.83;;;17.10;52.50;;;;;;4995423;28;20512;-65
2022/03/16 07:29:38;;;;;;;64.15;43.40;;;17.20;50.80;;;;;;5000356;28;20149;-64
2022/03/16 07:32:04;;;;;;;57.70;39.95;;;17.30;50.30;;;;;;5005513;28;20018;-65
2022/03/16 07:34:30;;;;;;;51.42;36.28;;;17.90;50.60;;;;;;5008154;28;20443;-65
2022/03/16 07:36:56;;;;;;;54.95;37.97;;;18.70;49.30;;;;;;5017409;28;20021;-64
2022/03/16 07:39:22;;;;;;;48.97;37.03;;;19.20;47.30;;;;;;5019943;28;20125;-65
2022/03/16 07:41:48;;;;;;;55.25;38.60;;;19.40;48.10;;;;;;5020401;28;20112;-65
2022/03/16 07:44:14;;;;;;;54.70;39.58;;;19.30;46.50;;;;;;5024893;28;20546;-66
2022/03/16 07:46:41;;;;;;;70.07;45.10;;;19.10;45.40;;;;;;5023355;28;20029;-66
2022/03/16 07:49:06;;;;;;;53.08;39.08;;;19.20;45.90;;;;;;5033104;28;20033;-65
2022/03/16 07:51:32;;;;;;;61.88;41.83;;;19.20;46.80;;;;;;5031261;28;20070;-65
2022/03/16 07:53:58;;;;;;;74.50;47.47;;;19.30;45.50;;;;;;5023329;28;20721;-67
2022/03/16 07:56:23;;;;;;;58.03;41.85;;;19.50;44.80;;;;;;4998293;28;20026;-63
2022/03/16 07:58:50;;;;;;;74.10;48.92;;;19.70;45.40;;;;;;5017949;28;20052;-66
2022/03/16 08:01:16;;;;;;;72.85;50.03;;;20.00;43.60;;;;;;5013650;28;20379;-62
2022/03/16 08:03:42;;;;;;;69.80;47.60;;;20.50;43.20;;;;;;5026664;28;20029;-65
2022/03/16 08:06:07;;;;;;;77.00;50.47;;;21.10;41.70;;;;;;5012555;28;20018;-65
2022/03/16 08:08:33;;;;;;;87.82;54.25;;;21.60;38.80;;;;;;5012595;28;20692;-65
2022/03/16 08:10:59;;;;;;;86.28;54.22;;;22.30;37.30;;;;;;5011811;28;20032;-66
2022/03/16 08:13:25;;;;;;;77.75;51.63;;;22.70;36.60;;;;;;5011835;28;20033;-64
2022/03/16 08:15:50;;;;;;;70.38;47.67;;;22.90;36.00;;;;;;5027746;28;20041;-66
2022/03/16 08:18:16;;;;;;;75.95;48.10;;;23.50;36.70;;;;;;5014888;28;20562;-66
2022/03/16 08:20:43;;;;;;;64.13;43.50;;;24.40;34.80;;;;;;5010258;28;20424;-64
2022/03/16 08:23:09;;;;;;;62.30;38.22;;;24.90;35.40;;;;;;5019492;28;20022;-64
2022/03/16 08:25:34;;;;;;;52.90;34.88;;;25.20;33.80;;;;;;5029323;28;20087;-66
2022/03/16 08:28:01;;;;;;;43.25;30.45;;;25.90;32.20;;;;;;5028857;28;20123;-64
2022/03/16 08:30:30;;;;;;;33.88;23.60;;;26.70;30.20;;;;;;5031806;28;20471;-66
2022/03/16 08:32:55;;;;;;;28.10;19.30;;;26.70;29.80;;;;;;5032417;28;20476;-66
2022/03/16 08:35:22;;;;;;;19.77;12.95;;;26.90;29.10;;;;;;5020102;28;20088;-69
2022/03/16 08:37:48;;;;;;;16.15;10.45;;;27.10;29.40;;;;;;5004180;28;20455;-67
2022/03/16 08:40:25;;;;;;;11.38;8.20;;;25.80;28.10;;;;;;4994009;28;20021;-64
2022/03/16 08:42:52;;;;;;;9.75;7.72;;;25.80;29.20;;;;;;5003627;28;20030;-67
2022/03/16 08:45:20;;;;;;;14.52;7.53;;;25.70;28.70;;;;;;4995515;28;20037;-64
2022/03/16 08:47:46;;;;;;;16.60;8.82;;;25.80;28.20;;;;;;4995538;28;20109;-63
2022/03/16 08:50:12;;;;;;;13.18;6.43;;;25.60;27.90;;;;;;5015852;28;20064;-63
2022/03/16 08:52:38;;;;;;;8.57;5.28;;;25.70;27.70;;;;;;4993564;28;21253;-68
2022/03/16 08:55:06;;;;;;;14.90;7.43;;;25.70;27.80;;;;;;4995204;28;20045;-65
2022/03/16 08:57:36;;;;;;;11.70;7.53;;;24.50;28.20;;;;;;4994557;28;20034;-62
2022/03/16 09:00:04;;;;;;;11.55;8.05;;;24.00;28.70;;;;;;5004061;28;20030;-64
2022/03/16 09:02:30;;;;;;;12.55;7.88;;;24.00;29.10;;;;;;4998406;28;20061;-62
2022/03/16 09:04:55;;;;;;;10.93;7.72;;;24.30;29.00;;;;;;5001166;28;20504;-63
2022/03/16 09:07:21;;;;;;;8.55;6.50;;;24.90;28.20;;;;;;5002110;28;20089;-64
2022/03/16 09:09:47;;;;;;;10.00;6.55;;;24.70;28.50;;;;;;4996975;28;20038;-63
2022/03/16 09:12:13;;;;;;;10.10;7.75;;;25.00;30.10;;;;;;4999588;28;20037;-64
2022/03/16 09:14:39;;;;;;;12.68;7.57;;;25.00;28.50;;;;;;5010562;28;20500;-64
2022/03/16 09:17:07;;;;;;;17.83;9.70;;;24.70;27.70;;;;;;5007774;28;20382;-64
2022/03/16 09:19:33;;;;;;;14.05;10.05;;;24.40;28.60;;;;;;4999165;28;20062;-64
2022/03/16 09:22:00;;;;;;;15.43;9.18;;;23.80;28.80;;;;;;4995015;28;20110;-66
2022/03/16 09:24:26;;;;;;;11.48;8.45;;;23.50;30.00;;;;;;5000074;28;20435;-62
2022/03/16 09:26:54;;;;;;;13.60;8.27;;;23.40;29.80;;;;;;4995337;28;20041;-65
2022/03/16 09:29:20;;;;;;;13.73;7.95;;;23.10;29.20;;;;;;4999690;28;20023;-65
2022/03/16 09:31:46;;;;;;;9.57;6.45;;;23.40;30.00;;;;;;4997611;28;20487;-65
2022/03/16 09:34:11;;;;;;;11.52;6.22;;;23.60;29.20;;;;;;5001600;28;20084;-62
2022/03/16 09:36:39;;;;;;;6.90;5.88;;;23.50;30.10;;;;;;5008977;28;20396;-64
2022/03/16 09:39:05;;;;;;;7.43;5.75;;;23.60;29.80;;;;;;5012850;28;20033;-64
2022/03/16 09:41:31;;;;;;;6.72;4.70;;;23.60;28.90;;;;;;5019212;28;20034;-66
2022/03/16 09:43:58;;;;;;;6.55;4.75;;;23.80;29.30;;;;;;5021427;28;20025;-61
2022/03/16 09:46:32;;;;;;;5.95;4.25;;;23.60;29.30;;;;;;5024365;28;20487;-62
2022/03/16 09:48:59;;;;;;;5.90;4.75;;;23.20;30.20;;;;;;5016721;28;20080;-65
2022/03/16 09:51:26;;;;;;;10.18;5.20;;;23.00;30.30;;;;;;5010623;28;20030;-63
2022/03/16 09:53:52;;;;;;;7.38;4.35;;;22.80;29.20;;;;;;5008033;28;20446;-62
2022/03/16 09:56:21;;;;;;;7.00;4.55;;;22.70;29.30;;;;;;5016019;28;20116;-68
2022/03/16 09:58:47;;;;;;;6.82;4.43;;;22.70;30.10;;;;;;5013003;28;20025;-68
2022/03/16 10:01:13;;;;;;;9.35;4.25;;;22.80;30.90;;;;;;5022290;28;20491;-61
2022/03/16 10:03:38;;;;;;;10.00;5.15;;;23.00;30.80;;;;;;5020997;28;20033;-63
2022/03/16 10:06:08;;;;;;;13.50;5.68;;;23.40;32.30;;;;;;5017107;28;20411;-62
2022/03/16 10:08:36;;;;;;;7.70;5.30;;;23.50;31.90;;;;;;5021942;28;20034;-65
2022/03/16 10:14:06;;;;;;;7.05;4.80;;;23.60;31.60;;;;;;5024745;28;20052;-62
2022/03/16 10:19:20;;;;;;;10.25;5.10;;;22.80;33.20;;;;;;5031260;28;20066;-64
2022/03/16 10:22:04;;;;;;;9.27;5.20;;;22.30;32.30;;;;;;5017552;28;20030;-62
2022/03/16 10:24:29;;;;;;;;;;;22.00;34.00;;;;;;5014991;28;20057;-62
2022/03/16 10:26:58;;;;;;;10.93;5.40;;;21.90;33.60;;;;;;5015020;28;20005;-60
2022/03/16 10:29:26;;;;;;;8.43;3.97;;;22.10;33.30;;;;;;5015243;28;20392;-62
2022/03/16 10:32:05;;;;;;;6.65;4.20;;;22.00;35.10;;;;;;5016302;28;20598;-61
2022/03/16 10:34:32;;;;;;;6.25;3.50;;;22.20;34.70;;;;;;5021294;28;20022;-63
2022/03/16 10:37:09;;;;;;;6.15;3.60;;;22.50;34.30;;;;;;5011026;28;20038;-63
2022/03/16 10:39:38;;;;;;;10.20;4.30;;;22.80;34.80;;;;;;5013009;28;20088;-66
2022/03/16 10:47:59;;;;;;;6.93;3.83;;;22.80;33.40;;;;;;5019331;28;20054;-61
2022/03/16 10:50:25;;;;;;;8.80;4.07;;;22.80;33.30;;;;;;5020687;28;20092;-62
2022/03/16 10:52:53;;;;;;;8.35;3.92;;;22.80;34.40;;;;;;5017210;28;20053;-62
2022/03/16 10:55:20;;;;;;;9.45;4.10;;;22.80;34.10;;;;;;5016018;28;20033;-65
2022/03/16 10:57:49;;;;;;;6.43;3.75;;;22.30;34.30;;;;;;5018673;28;20014;-64
2022/03/16 11:00:17;;;;;;;7.53;3.97;;;22.10;35.50;;;;;;5008301;28;20565;-62
2022/03/16 11:02:47;;;;;;;5.82;3.70;;;22.00;36.20;;;;;;5004604;28;20101;-64
2022/03/16 11:05:18;;;;;;;5.53;3.60;;;21.60;35.90;;;;;;5006756;28;20073;-64
2022/03/16 11:07:46;;;;;;;7.63;3.75;;;21.50;34.90;;;;;;5003331;28;20114;-65
2022/03/16 11:10:12;;;;;;;5.53;3.08;;;20.90;36.20;;;;;;5009490;28;20049;-63
2022/03/16 11:15:35;;;;;;;8.75;3.90;;;20.80;37.30;;;;;;5000956;28;20103;-63
2022/03/16 11:18:01;;;;;;;5.50;4.53;;;20.90;36.20;;;;;;5020117;28;20056;-65
2022/03/16 11:20:33;;;;;;;7.20;4.28;;;20.70;36.20;;;;;;5006334;28;20045;-63
2022/03/16 11:26:17;;;;;;;5.30;4.05;;;20.40;37.00;;;;;;5011888;28;20380;-68
2022/03/16 11:28:58;;;;;;;9.50;5.20;;;20.40;36.20;;;;;;5010416;28;20124;-64
2022/03/16 11:31:30;;;;;;;9.65;6.15;;;20.40;36.90;;;;;;4995934;28;20033;-66
2022/03/16 11:33:59;;;;;;;9.50;4.80;;;20.30;36.30;;;;;;5009763;28;20014;-62
2022/03/16 11:36:38;;;;;;;10.32;5.35;;;20.00;37.70;;;;;;5008440;28;20022;-62
2022/03/16 11:39:22;;;;;;;7.82;4.80;;;19.80;38.20;;;;;;5003253;28;20030;-62
2022/03/16 11:41:55;;;;;;;9.15;4.28;;;19.90;38.30;;;;;;4991371;28;20046;-61
2022/03/16 11:44:28;;;;;;;11.32;5.22;;;20.00;38.80;;;;;;5024157;28;20104;-64
2022/03/16 11:47:16;;;;;;;8.93;4.68;;;19.80;38.40;;;;;;5006794;28;20046;-66
2022/03/16 11:49:45;;;;;;;12.55;5.70;;;19.70;39.20;;;;;;5004542;28;20326;-63
2022/03/16 11:52:11;;;;;;;10.32;5.40;;;19.60;39.20;;;;;;4989597;28;20484;-63
2022/03/16 11:54:52;;;;;;;7.38;4.55;;;19.40;39.30;;;;;;4989911;28;20417;-65
2022/03/16 11:57:54;;;;;;;9.00;4.10;;;19.30;39.90;;;;;;4999978;28;20104;-64
2022/03/16 12:00:22;;;;;;;5.60;4.18;;;19.10;41.00;;;;;;5008664;28;20061;-64
2022/03/16 12:03:00;;;;;;;12.38;3.80;;;18.90;40.70;;;;;;5013456;28;20468;-65
2022/03/16 12:05:30;;;;;;;6.90;3.35;;;18.70;41.40;;;;;;5003988;28;20412;-65
2022/03/16 12:08:29;;;;;;;6.38;3.60;;;18.50;42.70;;;;;;4993936;28;20034;-65
2022/03/16 12:12:51;;;;;;;4.60;3.45;;;18.50;42.70;;;;;;4990510;28;20100;-66
2022/03/16 12:13:48;;;;;;;9.13;3.78;;;18.50;42.70;;;;;;4992299;28;20117;-65
2022/03/16 12:16:18;;;;;;;7.00;3.83;;;18.30;43.60;;;;;;4992774;28;20014;-65
2022/03/16 12:18:47;;;;;;;8.13;3.53;;;18.20;44.40;;;;;;4994432;28;20036;-65
2022/03/16 12:21:14;;;;;;;6.88;4.65;;;18.10;44.10;;;;;;5000240;28;20172;-65
2022/03/16 12:23:58;;;;;;;8.10;3.97;;;18.10;44.70;;;;;;5000894;28;20030;-65
2022/03/16 12:26:26;;;;;;;9.02;4.50;;;18.20;46.10;;;;;;5010375;28;20038;-65
2022/03/16 12:29:05;;;;;;;7.68;4.45;;;18.10;45.90;;;;;;4999384;28;20523;-65
2022/03/16 12:31:31;;;;;;;8.25;4.43;;;18.00;45.70;;;;;;4995195;28;20036;-65
2022/03/16 12:33:58;;;;;;;7.30;4.32;;;18.20;45.90;;;;;;5002810;28;20388;-64
2022/03/16 12:36:29;;;;;;;6.70;4.80;;;18.20;45.00;;;;;;5002231;28;20092;-64
2022/03/16 12:39:02;;;;;;;7.72;4.72;;;18.30;46.50;;;;;;4992850;28;20018;-64
2022/03/16 12:44:17;;;;;;;10.65;4.30;;;18.20;46.40;;;;;;5013331;28;20037;-64
2022/03/16 12:47:11;;;;;;;8.60;5.15;;;18.10;47.30;;;;;;5008512;28;20018;-64
2022/03/16 12:49:44;;;;;;;8.38;4.05;;;18.10;46.70;;;;;;4993635;28;20105;-64
2022/03/16 12:52:11;;;;;;;8.15;5.05;;;17.80;48.30;;;;;;5001377;28;20366;-65
2022/03/16 12:54:38;;;;;;;7.95;4.45;;;17.80;49.50;;;;;;5001822;28;20018;-65